createdAt,value
2023-01-20T00:00:11.585Z,97699.07
2023-01-20T00:03:22.971Z,97707.02
2023-01-20T00:05:52.535Z,97703.23
2023-01-20T00:08:20.737Z,97703.77
2023-01-20T00:10:48.744Z,97699.52
2023-01-20T00:13:17.071Z,97703.98
2023-01-20T00:15:45.329Z,97692.46
2023-01-20T00:18:13.340Z,97686.70
2023-01-20T00:20:42.003Z,97685.92
2023-01-20T00:23:09.971Z,97690.52
2023-01-20T00:25:38.417Z,97690.76
2023-01-20T00:28:06.578Z,97697.73
2023-01-20T00:30:34.655Z,97695.76
2023-01-20T00:33:02.872Z,97702.03
2023-01-20T00:35:30.948Z,97698.59
2023-01-20T00:37:58.956Z,97695.82
2023-01-20T00:40:27.021Z,97697.48
2023-01-20T00:42:55.220Z,97700.23
2023-01-20T00:45:23.501Z,97706.61
2023-01-20T00:47:51.501Z,97712.30
2023-01-20T00:50:19.646Z,97711.09
2023-01-20T00:52:47.717Z,97706.55
2023-01-20T00:55:55.598Z,97711.86
2023-01-20T00:58:23.854Z,97713.90
2023-01-20T01:00:53.537Z,97716.32
2023-01-20T01:03:22.658Z,97718.55
2023-01-20T01:06:51.173Z,97716.41
2023-01-20T01:10:35.455Z,97715.95
2023-01-20T01:13:04.843Z,97717.13
2023-01-20T01:16:33.915Z,97719.30
2023-01-20T01:19:02.798Z,97722.58
2023-01-20T01:21:30.927Z,97732.36
2023-01-20T01:23:58.849Z,97751.30
2023-01-20T01:27:07.438Z,97760.27
2023-01-20T01:29:35.515Z,97759.61
2023-01-20T01:32:03.614Z,97758.15
2023-01-20T01:34:31.789Z,97763.69
2023-01-20T01:37:00.119Z,97773.55
2023-01-20T01:39:28.192Z,97782.06
2023-01-20T01:41:56.519Z,97785.47
2023-01-20T01:44:27.976Z,97788.34
2023-01-20T01:46:56.003Z,97792.41
2023-01-20T01:49:31.776Z,97792.30
2023-01-20T01:52:06.111Z,97796.11
2023-01-20T01:54:38.298Z,97783.88
2023-01-20T01:57:08.703Z,97768.73
2023-01-20T01:59:38.750Z,97759.98
2023-01-20T02:02:07.035Z,97762.07
2023-01-20T02:04:35.280Z,97753.98
2023-01-20T02:07:12.867Z,97746.40
2023-01-20T02:09:41.268Z,97749.86
2023-01-20T02:12:17.578Z,97758.99
2023-01-20T02:14:50.616Z,97773.02
2023-01-20T02:17:24.568Z,97778.95
2023-01-20T02:19:56.207Z,97782.27
2023-01-20T02:23:52.195Z,97774.56
2023-01-20T02:26:39.187Z,97763.77
2023-01-20T02:29:44.668Z,97748.19
2023-01-20T02:32:35.040Z,97745.34
2023-01-20T02:35:12.537Z,97758.02
2023-01-20T02:38:31.152Z,97776.92
2023-01-20T02:42:27.539Z,97785.30
2023-01-20T02:45:04.751Z,97782.05
2023-01-20T02:47:55.953Z,97767.76
2023-01-20T02:50:36.493Z,97762.52
2023-01-20T02:53:07.654Z,97766.23
2023-01-20T02:55:42.590Z,97770.10
2023-01-20T02:58:18.366Z,97762.63
2023-01-20T03:00:58.419Z,97758.10
2023-01-20T03:03:34.533Z,97757.17
2023-01-20T03:06:07.141Z,97763.41
2023-01-20T03:08:38.281Z,97760.52
2023-01-20T03:11:08.956Z,97771.48
2023-01-20T03:13:47.436Z,97777.92
2023-01-20T03:16:22.162Z,97787.69
2023-01-20T03:18:51.809Z,97788.16
2023-01-20T03:21:19.919Z,97787.41
2023-01-20T03:23:52.882Z,97783.90
2023-01-20T03:26:23.266Z,97783.86
2023-01-20T03:29:16.191Z,97784.72
2023-01-20T03:31:52.954Z,97791.96
2023-01-20T03:34:24.405Z,97797.49
2023-01-20T03:36:54.362Z,97798.23
2023-01-20T03:39:24.172Z,97804.15
2023-01-20T03:42:01.164Z,97818.87
2023-01-20T03:44:52.250Z,97829.88
2023-01-20T03:47:47.480Z,97839.30
2023-01-20T03:50:54.188Z,97846.90
2023-01-20T03:53:25.316Z,97841.12
2023-01-20T03:56:04.659Z,97833.52
2023-01-20T03:58:38.012Z,97826.02
2023-01-20T04:01:17.791Z,97830.67
2023-01-20T04:03:50.791Z,97835.63
2023-01-20T04:06:22.291Z,97834.23
2023-01-20T04:08:59.411Z,97839.88
2023-01-20T04:11:28.114Z,97847.61
2023-01-20T04:13:56.667Z,97849.68
2023-01-20T04:16:26.672Z,97846.60
2023-01-20T04:19:15.857Z,97849.88
2023-01-20T04:22:12.687Z,97848.23
2023-01-20T04:25:08.476Z,97859.50
2023-01-20T04:27:36.387Z,97861.47
2023-01-20T04:30:04.704Z,97870.29
2023-01-20T04:32:32.607Z,97873.25
2023-01-20T04:35:00.473Z,97877.05
2023-01-20T04:37:28.409Z,97877.27
2023-01-20T04:39:56.505Z,97872.00
2023-01-20T04:42:25.856Z,97875.69
2023-01-20T04:44:54.088Z,97875.38
2023-01-20T04:47:22.234Z,97876.77
2023-01-20T04:49:50.508Z,97872.48
2023-01-20T04:52:18.614Z,97869.23
2023-01-20T04:54:46.662Z,97866.15
2023-01-20T04:57:14.763Z,97872.71
2023-01-20T04:59:47.935Z,97876.17
2023-01-20T05:02:16.340Z,97871.73
2023-01-20T05:04:45.580Z,97875.70
2023-01-20T05:07:13.527Z,97876.58
2023-01-20T05:09:41.560Z,97882.13
2023-01-20T05:12:09.645Z,97885.79
2023-01-20T05:14:37.535Z,97888.60
2023-01-20T05:17:05.570Z,97889.82
2023-01-20T05:19:33.466Z,97898.60
2023-01-20T05:22:01.466Z,97898.23
2023-01-20T05:24:30.906Z,97900.12
2023-01-20T05:27:02.245Z,97907.49
2023-01-20T05:29:30.520Z,97907.33
2023-01-20T05:31:58.626Z,97907.32
2023-01-20T05:34:26.649Z,97910.42
2023-01-20T05:36:54.795Z,97910.28
2023-01-20T05:39:22.859Z,97910.82
2023-01-20T05:41:51.048Z,97908.79
2023-01-20T05:44:19.158Z,97907.41
2023-01-20T05:46:47.598Z,97908.44
2023-01-20T05:49:15.760Z,97907.06
2023-01-20T05:51:43.808Z,97912.22
2023-01-20T05:54:11.861Z,97912.05
2023-01-20T05:56:39.930Z,97914.09
2023-01-20T05:59:08.187Z,97915.82
2023-01-20T06:01:36.693Z,97924.07
2023-01-20T06:04:04.881Z,97918.99
2023-01-20T06:06:33.103Z,97924.67
2023-01-20T06:09:01.103Z,97924.36
2023-01-20T06:11:29.261Z,97924.06
2023-01-20T06:13:57.438Z,97928.55
2023-01-20T06:16:25.585Z,97931.15
2023-01-20T06:18:53.548Z,97937.06
2023-01-20T06:22:02.613Z,97943.65
2023-01-20T06:24:31.303Z,97940.10
2023-01-20T06:26:59.514Z,97947.27
2023-01-20T06:29:27.573Z,97953.13
2023-01-20T06:31:55.966Z,97957.24
2023-01-20T06:34:24.194Z,97957.89
2023-01-20T06:36:52.273Z,97963.02
2023-01-20T06:39:20.310Z,97966.23
2023-01-20T06:41:48.370Z,97967.52
2023-01-20T06:44:17.379Z,97960.77
2023-01-20T06:46:48.200Z,97962.27
2023-01-20T06:49:16.276Z,97974.11
2023-01-20T06:51:44.332Z,97980.61
2023-01-20T06:54:12.275Z,97985.17
2023-01-20T06:56:40.271Z,97988.00
2023-01-20T06:59:10.238Z,97986.85
2023-01-20T07:01:38.428Z,97985.76
2023-01-20T07:04:06.687Z,97986.23
2023-01-20T07:06:40.068Z,97991.31
2023-01-20T07:09:11.637Z,97993.67
2023-01-20T07:11:40.448Z,98001.37
2023-01-20T07:14:10.123Z,98004.36
2023-01-20T07:16:38.475Z,98011.52
2023-01-20T07:19:06.439Z,98017.43
2023-01-20T07:21:34.368Z,98023.58
2023-01-20T07:24:02.532Z,98012.60
2023-01-20T07:26:31.483Z,98025.85
2023-01-20T07:29:00.007Z,98029.58
2023-01-20T07:31:29.437Z,98026.16
2023-01-20T07:33:58.433Z,98025.52
2023-01-20T07:36:26.654Z,98019.17
2023-01-20T07:38:54.773Z,98021.19
2023-01-20T07:41:23.766Z,98026.30
2023-01-20T07:43:53.766Z,98024.59
2023-01-20T07:46:22.568Z,98028.04
2023-01-20T07:48:50.721Z,98027.27
2023-01-20T07:51:18.875Z,98026.95
2023-01-20T07:53:51.063Z,98021.11
2023-01-20T07:56:24.429Z,98017.64
2023-01-20T07:58:54.490Z,98013.54
2023-01-20T08:01:26.353Z,98021.92
2023-01-20T08:03:54.805Z,98031.71
2023-01-20T08:06:24.840Z,98039.11
2023-01-20T08:08:58.747Z,98043.69
2023-01-20T08:11:26.895Z,98047.59
2023-01-20T08:13:54.829Z,98052.69
2023-01-20T08:16:23.052Z,98052.80
2023-01-20T08:18:54.037Z,98056.37
2023-01-20T08:21:24.141Z,98052.55
2023-01-20T08:23:55.240Z,98053.16
2023-01-20T08:26:27.961Z,98054.79
2023-01-20T08:29:02.510Z,98053.09
2023-01-20T08:31:30.910Z,98056.09
2023-01-20T08:33:59.433Z,98054.23
2023-01-20T08:36:30.691Z,98058.97
2023-01-20T08:39:02.627Z,98060.00
2023-01-20T08:41:34.584Z,98064.64
2023-01-20T08:44:05.389Z,98066.19
2023-01-20T08:46:34.590Z,98069.89
2023-01-20T08:49:02.494Z,98069.25
2023-01-20T08:51:32.023Z,98076.84
2023-01-20T08:54:00.420Z,98080.61
2023-01-20T08:56:30.049Z,98078.36
2023-01-20T08:58:59.389Z,98075.30
2023-01-20T09:01:30.270Z,98077.23
2023-01-20T09:04:05.716Z,98072.12
2023-01-20T09:07:01.020Z,98077.66
2023-01-20T09:09:28.905Z,98075.35
2023-01-20T09:11:56.964Z,98075.53
2023-01-20T09:14:25.511Z,98076.35
2023-01-20T09:16:53.642Z,98082.38
2023-01-20T09:19:21.937Z,98092.55
2023-01-20T09:21:50.107Z,98089.26
2023-01-20T09:24:18.086Z,98099.38
2023-01-20T09:26:47.779Z,98095.77
2023-01-20T09:29:18.882Z,98094.91
2023-01-20T09:31:58.226Z,98088.30
2023-01-20T09:34:29.612Z,98091.19
2023-01-20T09:37:20.644Z,98084.60
2023-01-20T09:40:08.115Z,98089.23
2023-01-20T09:43:20.027Z,98087.49
2023-01-20T09:45:56.904Z,98084.45
2023-01-20T09:49:16.990Z,98083.63
2023-01-20T09:52:29.280Z,98081.02
2023-01-20T09:55:04.026Z,98076.36
2023-01-20T09:57:36.979Z,98073.16
2023-01-20T10:00:22.182Z,98074.86
2023-01-20T10:02:56.885Z,98072.55
2023-01-20T10:05:47.099Z,98076.51
2023-01-20T10:08:25.095Z,98070.42
2023-01-20T10:11:04.421Z,98068.79
2023-01-20T10:13:51.727Z,98066.14
2023-01-20T10:16:36.985Z,98069.92
2023-01-20T10:19:20.937Z,98069.42
2023-01-20T10:22:01.300Z,98069.42
2023-01-20T10:24:34.297Z,98071.50
2023-01-20T10:27:05.261Z,98066.92
2023-01-20T10:29:47.030Z,98066.11
2023-01-20T10:32:33.947Z,98065.92
2023-01-20T10:35:11.302Z,98065.70
2023-01-20T10:37:39.657Z,98073.08
2023-01-20T10:40:25.036Z,98074.73
2023-01-20T10:43:01.211Z,98077.32
2023-01-20T10:45:51.312Z,98082.03
2023-01-20T10:48:44.876Z,98081.96
2023-01-20T10:51:23.542Z,98084.55
2023-01-20T10:54:02.303Z,98083.19
2023-01-20T10:56:55.762Z,98081.88
2023-01-20T10:59:40.699Z,98084.98
2023-01-20T11:02:20.848Z,98087.55
2023-01-20T11:04:55.485Z,98090.65
2023-01-20T11:07:23.701Z,98094.66
2023-01-20T11:09:51.794Z,98089.98
2023-01-20T11:12:28.128Z,98082.56
2023-01-20T11:15:00.387Z,98077.31
2023-01-20T11:17:28.408Z,98078.50
2023-01-20T11:19:58.606Z,98075.63
2023-01-20T11:22:31.456Z,98074.00
2023-01-20T11:25:00.851Z,98070.04
2023-01-20T11:27:37.293Z,98063.97
2023-01-20T11:30:20.697Z,98062.69
2023-01-20T11:33:08.129Z,98058.33
2023-01-20T11:35:36.243Z,98054.98
2023-01-20T11:38:24.702Z,98055.59
2023-01-20T11:40:55.270Z,98052.52
2023-01-20T11:43:34.684Z,98049.02
2023-01-20T11:46:30.158Z,98044.70
2023-01-20T11:49:22.815Z,98040.98
2023-01-20T11:51:54.084Z,98039.48
2023-01-20T11:54:23.407Z,98033.59
2023-01-20T11:57:04.781Z,98027.11
2023-01-20T11:59:35.616Z,98021.84
2023-01-20T12:02:06.921Z,98021.63
2023-01-20T12:04:53.631Z,98022.75
2023-01-20T12:07:41.877Z,98023.10
2023-01-20T12:10:30.700Z,98021.95
2023-01-20T12:13:13.136Z,98014.83
2023-01-20T12:15:46.966Z,98010.64
2023-01-20T12:18:35.998Z,98008.38
2023-01-20T12:21:17.938Z,98009.60
2023-01-20T12:24:14.027Z,98013.13
2023-01-20T12:26:42.882Z,98017.80
2023-01-20T12:29:33.834Z,98020.90
2023-01-20T12:32:04.464Z,98026.10
2023-01-20T12:34:34.514Z,98024.34
2023-01-20T12:37:18.894Z,98027.20
2023-01-20T12:40:15.276Z,98034.60
2023-01-20T12:43:19.837Z,98032.28
2023-01-20T12:46:03.658Z,98031.45
2023-01-20T12:48:52.119Z,98031.06
2023-01-20T12:51:35.850Z,98037.46
2023-01-20T12:54:16.228Z,98035.19
2023-01-20T12:57:01.301Z,98038.17
2023-01-20T13:00:06.504Z,98041.70
2023-01-20T13:03:05.517Z,98050.91
2023-01-20T13:06:01.209Z,98047.27
2023-01-20T13:08:36.757Z,98048.26
2023-01-20T13:11:35.922Z,98053.90
2023-01-20T13:14:12.668Z,98052.04
2023-01-20T13:16:44.427Z,98059.13
2023-01-20T13:19:31.033Z,98063.38
2023-01-20T13:22:26.821Z,98063.31
2023-01-20T13:24:57.471Z,98069.86
2023-01-20T13:27:33.498Z,98072.66
2023-01-20T13:30:54.756Z,98081.89
2023-01-20T13:33:39.976Z,98094.89
2023-01-20T13:36:22.898Z,98093.95
2023-01-20T13:39:28.999Z,98086.02
2023-01-20T13:41:57.515Z,98085.55
2023-01-20T13:44:36.250Z,98082.98
2023-01-20T13:47:07.189Z,98086.23
2023-01-20T13:49:44.425Z,98087.06
2023-01-20T13:52:12.661Z,98089.32
2023-01-20T13:54:45.905Z,98096.52
2023-01-20T13:57:28.116Z,98096.86
2023-01-20T13:59:56.637Z,98106.70
2023-01-20T14:02:28.989Z,98109.38
2023-01-20T14:04:58.796Z,98113.17
2023-01-20T14:07:30.123Z,98115.55
2023-01-20T14:10:00.197Z,98111.48
2023-01-20T14:12:28.465Z,98113.33
2023-01-20T14:14:56.518Z,98115.48
2023-01-20T14:17:25.045Z,98123.08
2023-01-20T14:19:56.048Z,98120.20
2023-01-20T14:22:32.658Z,98125.64
2023-01-20T14:25:01.905Z,98125.16
2023-01-20T14:27:37.409Z,98123.76
2023-01-20T14:30:15.170Z,98120.34
2023-01-20T14:32:49.837Z,98124.95
2023-01-20T14:35:31.580Z,98127.06
2023-01-20T14:38:00.527Z,98128.30
2023-01-20T14:40:35.434Z,98126.75
2023-01-20T14:43:21.870Z,98122.91
2023-01-20T14:45:52.233Z,98123.43
2023-01-20T14:48:34.032Z,98129.66
2023-01-20T14:51:04.445Z,98130.45
2023-01-20T14:53:32.720Z,98132.30
2023-01-20T14:56:02.641Z,98134.17
2023-01-20T14:58:31.321Z,98134.34
2023-01-20T15:01:06.827Z,98134.87
2023-01-20T15:03:35.820Z,98134.91
2023-01-20T15:06:13.029Z,98139.89
2023-01-20T15:08:41.033Z,98140.25
2023-01-20T15:11:31.368Z,98141.25
2023-01-20T15:14:02.204Z,98141.54
2023-01-20T15:16:46.631Z,98142.98
2023-01-20T15:19:23.424Z,98147.96
2023-01-20T15:21:57.029Z,98148.02
2023-01-20T15:24:41.170Z,98153.07
2023-01-20T15:27:30.618Z,98154.14
2023-01-20T15:30:13.036Z,98152.98
2023-01-20T15:32:42.307Z,98149.39
2023-01-20T15:35:15.209Z,98145.83
2023-01-20T15:37:44.587Z,98145.70
2023-01-20T15:40:24.012Z,98143.95
2023-01-20T15:42:53.644Z,98146.34
2023-01-20T15:45:21.827Z,98148.41
2023-01-20T15:47:50.033Z,98144.65
2023-01-20T15:50:22.974Z,98148.13
2023-01-20T15:53:18.747Z,98149.37
2023-01-20T15:55:51.147Z,98151.20
2023-01-20T15:58:30.820Z,98150.11
2023-01-20T16:01:00.231Z,98148.92
2023-01-20T16:03:28.846Z,98144.14
2023-01-20T16:05:57.211Z,98148.35
2023-01-20T16:08:37.755Z,98150.41
2023-01-20T16:11:06.314Z,98150.80
2023-01-20T16:13:34.799Z,98155.34
2023-01-20T16:16:06.914Z,98157.77
2023-01-20T16:18:35.715Z,98158.63
2023-01-20T16:21:04.845Z,98163.98
2023-01-20T16:23:32.748Z,98168.34
2023-01-20T16:26:01.029Z,98172.17
2023-01-20T16:28:28.982Z,98170.80
2023-01-20T16:30:57.892Z,98174.89
2023-01-20T16:33:27.287Z,98171.45
2023-01-20T16:35:56.452Z,98171.34
2023-01-20T16:38:25.951Z,98177.08
2023-01-20T16:41:03.197Z,98177.45
2023-01-20T16:43:31.306Z,98172.65
2023-01-20T16:45:59.342Z,98173.25
2023-01-20T16:48:27.556Z,98178.06
2023-01-20T16:50:55.813Z,98180.13
2023-01-20T16:53:23.744Z,98180.48
2023-01-20T16:55:51.874Z,98181.05
2023-01-20T16:58:19.792Z,98178.81
2023-01-20T17:00:47.944Z,98175.57
2023-01-20T17:03:15.870Z,98175.78
2023-01-20T17:05:43.923Z,98177.04
2023-01-20T17:08:12.147Z,98176.03
2023-01-20T17:10:40.261Z,98178.81
2023-01-20T17:13:08.795Z,98177.92
2023-01-20T17:16:01.669Z,98179.98
2023-01-20T17:18:29.780Z,98178.45
2023-01-20T17:20:57.768Z,98177.59
2023-01-20T17:23:25.744Z,98179.36
2023-01-20T17:25:53.725Z,98185.61
2023-01-20T17:28:21.705Z,98186.98
2023-01-20T17:30:49.814Z,98184.92
2023-01-20T17:33:17.946Z,98186.48
2023-01-20T17:35:55.822Z,98188.19
2023-01-20T17:38:24.689Z,98189.03
2023-01-20T17:40:52.650Z,98190.36
2023-01-20T17:43:20.658Z,98181.76
2023-01-20T17:45:53.056Z,98186.07
2023-01-20T17:48:21.455Z,98185.04
2023-01-20T17:50:49.453Z,98180.25
2023-01-20T17:53:18.574Z,98184.08
2023-01-20T17:55:46.547Z,98181.87
2023-01-20T17:58:14.792Z,98178.95
2023-01-20T18:00:42.790Z,98175.49
2023-01-20T18:03:10.804Z,98170.48
2023-01-20T18:05:38.761Z,98165.86
2023-01-20T18:08:06.826Z,98163.13
2023-01-20T18:10:34.923Z,98165.70
2023-01-20T18:13:02.907Z,98164.86
2023-01-20T18:15:30.867Z,98168.32
2023-01-20T18:18:02.420Z,98165.43
2023-01-20T18:20:30.540Z,98163.59
2023-01-20T18:22:58.514Z,98163.63
2023-01-20T18:25:26.575Z,98165.35
2023-01-20T18:28:35.160Z,98162.92
2023-01-20T18:31:25.423Z,98154.81
2023-01-20T18:33:56.898Z,98155.48
2023-01-20T18:36:27.789Z,98156.02
2023-01-20T18:39:01.731Z,98153.98
2023-01-20T18:41:32.329Z,98151.90
2023-01-20T18:44:00.507Z,98153.47
2023-01-20T18:46:28.803Z,98146.07
2023-01-20T18:49:03.611Z,98149.23
2023-01-20T18:51:33.446Z,98139.83
2023-01-20T18:54:08.587Z,98135.16
2023-01-20T18:56:37.094Z,98136.39
2023-01-20T18:59:06.791Z,98136.23
2023-01-20T19:01:39.565Z,98138.41
2023-01-20T19:04:10.743Z,98134.55
2023-01-20T19:06:41.574Z,98134.84
2023-01-20T19:09:10.658Z,98132.91
2023-01-20T19:11:42.078Z,98128.61
2023-01-20T19:14:14.814Z,98127.73
2023-01-20T19:16:49.226Z,98127.19
2023-01-20T19:19:19.204Z,98125.13
2023-01-20T19:21:51.858Z,98128.02
2023-01-20T19:24:21.486Z,98127.45
2023-01-20T19:26:51.712Z,98124.66
2023-01-20T19:29:19.906Z,98130.29
2023-01-20T19:31:49.298Z,98129.79
2023-01-20T19:34:17.469Z,98127.58
2023-01-20T19:36:45.570Z,98124.59
2023-01-20T19:39:13.736Z,98129.05
2023-01-20T19:41:41.882Z,98128.64
2023-01-20T19:44:11.274Z,98128.62
2023-01-20T19:46:39.349Z,98128.48
2023-01-20T19:49:07.673Z,98127.86
2023-01-20T19:51:36.562Z,98130.13
2023-01-20T19:54:05.884Z,98129.98
2023-01-20T19:56:35.523Z,98130.44
2023-01-20T19:59:06.319Z,98132.79
2023-01-20T20:01:36.729Z,98130.56
2023-01-20T20:04:10.384Z,98127.14
2023-01-20T20:06:47.618Z,98126.85
2023-01-20T20:09:19.463Z,98126.90
2023-01-20T20:11:48.215Z,98128.13
2023-01-20T20:14:19.379Z,98122.27
2023-01-20T20:16:48.172Z,98124.05
2023-01-20T20:19:19.231Z,98127.30
2023-01-20T20:21:47.476Z,98128.88
2023-01-20T20:24:17.390Z,98132.01
2023-01-20T20:26:46.384Z,98135.98
2023-01-20T20:29:18.552Z,98135.13
2023-01-20T20:31:47.443Z,98136.31
2023-01-20T20:34:18.539Z,98133.73
2023-01-20T20:36:47.264Z,98126.89
2023-01-20T20:39:18.326Z,98123.41
2023-01-20T20:41:46.988Z,98112.90
2023-01-20T20:44:16.557Z,98104.27
2023-01-20T20:46:44.805Z,98101.69
2023-01-20T20:49:15.836Z,98099.77
2023-01-20T20:51:44.297Z,98101.65
2023-01-20T20:54:17.173Z,98101.84
2023-01-20T20:56:45.735Z,98100.27
2023-01-20T20:59:13.851Z,98093.19
2023-01-20T21:01:42.053Z,98094.89
2023-01-20T21:04:11.851Z,98091.73
2023-01-20T21:06:39.935Z,98092.45
2023-01-20T21:09:08.172Z,98097.80
2023-01-20T21:11:38.270Z,98094.36
2023-01-20T21:14:07.477Z,98096.95
2023-01-20T21:16:36.360Z,98093.89
2023-01-20T21:19:05.374Z,98092.38
2023-01-20T21:21:33.969Z,98091.02
2023-01-20T21:24:02.096Z,98095.17
2023-01-20T21:26:31.035Z,98093.30
2023-01-20T21:29:02.317Z,98093.33
2023-01-20T21:31:31.791Z,98092.50
2023-01-20T21:34:00.831Z,98094.05
2023-01-20T21:36:31.312Z,98095.89
2023-01-20T21:38:59.800Z,98091.02
2023-01-20T21:41:28.112Z,98085.63
2023-01-20T21:44:14.704Z,98081.34
2023-01-20T21:46:42.842Z,98077.40
2023-01-20T21:49:30.664Z,98070.89
2023-01-20T21:52:17.482Z,98071.40
2023-01-20T21:54:45.841Z,98073.99
2023-01-20T21:57:14.957Z,98078.16
2023-01-20T21:59:43.461Z,98077.10
2023-01-20T22:02:13.625Z,98083.33
2023-01-20T22:04:42.794Z,98082.89
2023-01-20T22:07:11.413Z,98084.25
2023-01-20T22:09:40.696Z,98081.27
2023-01-20T22:12:09.349Z,98082.77
2023-01-20T22:14:38.653Z,98082.04
2023-01-20T22:17:08.494Z,98081.11
2023-01-20T22:19:38.341Z,98080.05
2023-01-20T22:22:07.302Z,98081.06
2023-01-20T22:24:36.252Z,98078.59
2023-01-20T22:27:04.439Z,98081.83
2023-01-20T22:29:32.742Z,98076.15
2023-01-20T22:32:03.399Z,98071.37
2023-01-20T22:34:31.662Z,98068.48
2023-01-20T22:37:00.733Z,98069.44
2023-01-20T22:39:29.429Z,98070.59
2023-01-20T22:41:57.666Z,98070.90
2023-01-20T22:44:25.857Z,98069.56
2023-01-20T22:46:54.060Z,98070.45
2023-01-20T22:49:22.307Z,98073.55
2023-01-20T22:51:50.667Z,98069.58
2023-01-20T22:54:18.910Z,98066.95
2023-01-20T22:56:48.190Z,98062.59
2023-01-20T22:59:16.322Z,98063.11
2023-01-20T23:01:44.465Z,98059.86
2023-01-20T23:04:12.671Z,98057.96
2023-01-20T23:06:40.801Z,98058.01
2023-01-20T23:09:12.697Z,98052.20
2023-01-20T23:11:40.919Z,98053.45
2023-01-20T23:14:12.951Z,98051.45
2023-01-20T23:16:42.485Z,98053.07
2023-01-20T23:19:11.199Z,98054.43
2023-01-20T23:21:39.202Z,98055.14
2023-01-20T23:24:09.171Z,98059.95
2023-01-20T23:26:37.258Z,98057.52
2023-01-20T23:29:05.468Z,98055.73
2023-01-20T23:31:35.557Z,98051.89
2023-01-20T23:35:04.574Z,98051.52
2023-01-20T23:38:09.312Z,98050.40
2023-01-20T23:40:37.345Z,98054.03
2023-01-20T23:43:05.380Z,98051.98
2023-01-20T23:45:33.371Z,98052.64
2023-01-20T23:48:01.567Z,98046.02
2023-01-20T23:50:29.779Z,98049.06
2023-01-20T23:53:58.562Z,98045.73
2023-01-20T23:56:27.024Z,98047.05
2023-01-20T23:58:54.997Z,98053.34
